Time;durP1;ratioP1;P1;durP2;ratioP2;P2;SDS_P1;SDS_P2;PMS_P1;PMS_P2;Temp;Humidity;BMP_temperature;BMP_pressure;BME280_temperature;BME280_humidity;BME280_pressure;Samples;Min_cycle;Max_cycle;Signal;HPM_P1;HPM_P2
2024/01/22 00:01:41;;;;;;;14.32;8.68;;;;;;;;;;4934569;29;20028;-60
2024/01/22 00:04:07;;;;;;;15.63;9.55;;;;;;;;;;4938180;29;20741;-58
2024/01/22 00:06:41;;;;;;;16.65;9.10;;;;;;;;;;4935851;29;20039;-60
2024/01/22 00:09:07;;;;;;;12.98;8.75;;;;;;;;;;4931683;29;20666;-59
2024/01/22 00:11:32;;;;;;;14.02;9.95;;;;;;;;;;4938672;29;20027;-58
2024/01/22 00:13:58;;;;;;;15.50;8.63;;;;;;;;;;4937907;29;20011;-59
2024/01/22 00:16:24;;;;;;;16.92;9.75;;;;;;;;;;4937094;29;20604;-60
2024/01/22 00:18:49;;;;;;;13.15;8.25;;;;;;;;;;4936449;29;20024;-57
2024/01/22 00:21:15;;;;;;;12.43;7.65;;;;;;;;;;4938943;29;20028;-59
2024/01/22 00:23:40;;;;;;;15.05;8.80;;;;;;;;;;4937384;29;20039;-59
2024/01/22 00:26:06;;;;;;;14.00;8.50;;;;;;;;;;4936398;29;20059;-60
2024/01/22 00:28:31;;;;;;;13.38;8.75;;;;;;;;;;4931368;29;20034;-60
2024/01/22 00:30:56;;;;;;;14.80;9.15;;;;;;;;;;4934780;29;20083;-59
2024/01/22 00:33:22;;;;;;;12.80;9.68;;;;;;;;;;4937933;29;20493;-59
2024/01/22 00:35:47;;;;;;;14.90;10.40;;;;;;;;;;4934572;29;20454;-59
2024/01/22 00:38:13;;;;;;;17.67;10.15;;;;;;;;;;4934802;29;20177;-59
2024/01/22 00:40:38;;;;;;;20.40;11.23;;;;;;;;;;4935708;29;20647;-60
2024/01/22 00:43:04;;;;;;;14.90;10.98;;;;;;;;;;4937977;29;20419;-58
2024/01/22 00:45:29;;;;;;;15.85;9.90;;;;;;;;;;4937020;29;20407;-60
2024/01/22 00:47:56;;;;;;;16.02;11.05;;;;;;;;;;4932131;29;20031;-59
2024/01/22 00:50:21;;;;;;;16.52;10.95;;;;;;;;;;4933831;29;20036;-59
2024/01/22 00:52:47;;;;;;;16.75;11.40;;;;;;;;;;4932780;29;20382;-60
2024/01/22 00:55:12;;;;;;;19.45;10.30;;;;;;;;;;4936592;29;20984;-58
2024/01/22 00:57:38;;;;;;;12.98;8.55;;;;;;;;;;4928899;29;20024;-59
2024/01/22 01:00:05;;;;;;;12.70;8.75;;;;;;;;;;4933849;29;20525;-60
2024/01/22 01:02:30;;;;;;;10.90;9.02;;;;;;;;;;4936320;29;20390;-60
2024/01/22 01:04:55;;;;;;;15.80;9.63;;;;;;;;;;4935924;29;20119;-58
2024/01/22 01:07:21;;;;;;;19.17;10.80;;;;;;;;;;4936619;29;20035;-60
2024/01/22 01:09:46;;;;;;;12.85;8.23;;;;;;;;;;4935082;29;20035;-59
2024/01/22 01:12:12;;;;;;;13.93;11.02;;;;;;;;;;4933445;29;20501;-58
2024/01/22 01:14:37;;;;;;;12.30;8.15;;;;;;;;;;4937160;29;20059;-59
2024/01/22 01:17:03;;;;;;;14.25;10.35;;;;;;;;;;4936051;29;20043;-59
2024/01/22 01:19:28;;;;;;;9.85;7.15;;;;;;;;;;4927579;29;20523;-60
2024/01/22 01:21:54;;;;;;;14.45;8.18;;;;;;;;;;4935692;29;20028;-60
2024/01/22 01:24:19;;;;;;;11.98;9.75;;;;;;;;;;4929041;29;20123;-58
2024/01/22 01:26:45;;;;;;;12.30;7.72;;;;;;;;;;4933204;29;20113;-60
2024/01/22 01:29:10;;;;;;;14.88;8.30;;;;;;;;;;4935630;29;20055;-60
2024/01/22 01:31:35;;;;;;;13.77;10.13;;;;;;;;;;4933673;29;20052;-58
2024/01/22 01:34:01;;;;;;;11.93;7.45;;;;;;;;;;4936457;29;20098;-58
2024/01/22 01:36:27;;;;;;;10.38;7.85;;;;;;;;;;4935531;29;20410;-59
2024/01/22 01:38:52;;;;;;;11.88;7.75;;;;;;;;;;4936282;29;20430;-59
2024/01/22 01:41:17;;;;;;;12.50;7.13;;;;;;;;;;4934767;29;20048;-60
2024/01/22 01:43:43;;;;;;;11.85;8.57;;;;;;;;;;4935277;29;20035;-57
2024/01/22 01:46:08;;;;;;;8.55;6.95;;;;;;;;;;4940441;29;20107;-61
2024/01/22 01:48:34;;;;;;;11.35;6.57;;;;;;;;;;4937498;29;20122;-61
2024/01/22 01:51:00;;;;;;;8.82;6.00;;;;;;;;;;4936547;29;20036;-60
2024/01/22 01:53:26;;;;;;;10.43;6.22;;;;;;;;;;4941911;29;20019;-60
2024/01/22 01:55:52;;;;;;;8.80;7.10;;;;;;;;;;4939207;29;20577;-60
2024/01/22 01:58:22;;;;;;;9.48;6.40;;;;;;;;;;4938835;29;20032;-59
2024/01/22 02:00:51;;;;;;;8.88;6.47;;;;;;;;;;4937502;29;20064;-60
2024/01/22 02:03:17;;;;;;;7.90;4.95;;;;;;;;;;4936682;29;20028;-60
2024/01/22 02:05:43;;;;;;;7.05;5.32;;;;;;;;;;4934528;29;20554;-58
2024/01/22 02:08:08;;;;;;;11.77;5.47;;;;;;;;;;4936907;29;20039;-60
2024/01/22 02:10:33;;;;;;;9.02;5.32;;;;;;;;;;4937927;29;20040;-60
2024/01/22 02:13:01;;;;;;;6.97;4.40;;;;;;;;;;4931095;29;20032;-59
2024/01/22 02:15:27;;;;;;;8.50;4.80;;;;;;;;;;4939134;29;20070;-60
2024/01/22 02:17:52;;;;;;;7.70;5.05;;;;;;;;;;4937575;29;20363;-60
2024/01/22 02:20:17;;;;;;;9.27;4.60;;;;;;;;;;4935191;29;20099;-60
2024/01/22 02:22:43;;;;;;;8.13;5.95;;;;;;;;;;4933953;29;20031;-60
2024/01/22 02:25:08;;;;;;;12.80;5.05;;;;;;;;;;4940011;29;20046;-59
2024/01/22 02:27:34;;;;;;;8.80;4.28;;;;;;;;;;4939482;29;20188;-59
2024/01/22 02:29:59;;;;;;;10.05;5.53;;;;;;;;;;4937033;29;20118;-60
2024/01/22 02:32:24;;;;;;;9.20;5.05;;;;;;;;;;4941103;29;20052;-60
2024/01/22 02:34:50;;;;;;;9.45;4.78;;;;;;;;;;4939250;29;20027;-59
2024/01/22 02:37:15;;;;;;;8.20;4.68;;;;;;;;;;4939398;29;20039;-58
2024/01/22 02:39:41;;;;;;;13.88;4.22;;;;;;;;;;4937936;29;20050;-59
2024/01/22 02:42:07;;;;;;;7.40;3.90;;;;;;;;;;4938911;29;20119;-59
2024/01/22 02:44:35;;;;;;;8.93;4.05;;;;;;;;;;4938774;29;20096;-59
2024/01/22 02:47:01;;;;;;;7.82;5.28;;;;;;;;;;4941019;29;20474;-58
2024/01/22 02:49:27;;;;;;;7.57;4.30;;;;;;;;;;4937594;29;20094;-59
2024/01/22 02:51:52;;;;;;;7.45;4.68;;;;;;;;;;4938693;29;20375;-60
2024/01/22 02:54:18;;;;;;;13.10;4.43;;;;;;;;;;4935836;29;20050;-59
2024/01/22 02:56:43;;;;;;;7.90;4.72;;;;;;;;;;4938382;29;20031;-60
2024/01/22 02:59:09;;;;;;;8.73;4.47;;;;;;;;;;4935576;29;20043;-58
2024/01/22 03:01:34;;;;;;;6.13;3.65;;;;;;;;;;4933317;29;20032;-60
2024/01/22 03:03:59;;;;;;;9.85;3.75;;;;;;;;;;4933234;29;20088;-59
2024/01/22 03:06:25;;;;;;;5.80;3.58;;;;;;;;;;4937245;29;20031;-58
2024/01/22 03:08:50;;;;;;;8.15;4.15;;;;;;;;;;4936370;29;20471;-60
2024/01/22 03:11:15;;;;;;;7.97;2.90;;;;;;;;;;4927787;29;20040;-60
2024/01/22 03:13:41;;;;;;;6.90;4.43;;;;;;;;;;4938765;29;20102;-59
2024/01/22 03:16:06;;;;;;;8.02;3.58;;;;;;;;;;4931698;29;20040;-60
2024/01/22 03:18:32;;;;;;;6.68;3.50;;;;;;;;;;4932476;29;20042;-57
2024/01/22 03:20:57;;;;;;;6.40;4.05;;;;;;;;;;4937678;29;20542;-58
2024/01/22 03:23:22;;;;;;;5.75;3.20;;;;;;;;;;4935696;29;20123;-59
2024/01/22 03:25:48;;;;;;;6.50;3.33;;;;;;;;;;4928885;29;20043;-60
2024/01/22 03:28:13;;;;;;;10.02;3.47;;;;;;;;;;4937402;29;20028;-58
2024/01/22 03:30:39;;;;;;;5.85;4.10;;;;;;;;;;4933736;29;20282;-61
2024/01/22 03:33:05;;;;;;;7.10;3.30;;;;;;;;;;4938408;29;20722;-58
2024/01/22 03:35:30;;;;;;;6.30;3.75;;;;;;;;;;4938532;29;20039;-59
2024/01/22 03:37:56;;;;;;;10.63;4.45;;;;;;;;;;4938356;29;20043;-59
2024/01/22 03:40:21;;;;;;;8.43;3.95;;;;;;;;;;4932905;29;20098;-60
2024/01/22 03:42:46;;;;;;;6.57;3.40;;;;;;;;;;4936570;29;20110;-59
2024/01/22 03:45:14;;;;;;;3.80;2.63;;;;;;;;;;4931538;29;20118;-59
2024/01/22 03:47:39;;;;;;;5.18;3.25;;;;;;;;;;4934958;29;20016;-59
2024/01/22 03:50:06;;;;;;;4.28;2.92;;;;;;;;;;4930332;29;20458;-60
2024/01/22 03:52:32;;;;;;;9.02;3.20;;;;;;;;;;4938748;29;20027;-59
2024/01/22 03:54:57;;;;;;;6.75;3.08;;;;;;;;;;4940486;29;20091;-60
2024/01/22 03:57:22;;;;;;;7.53;2.75;;;;;;;;;;4931058;29;20031;-60
2024/01/22 03:59:48;;;;;;;8.20;3.33;;;;;;;;;;4937440;29;20071;-60
2024/01/22 04:02:14;;;;;;;7.00;3.25;;;;;;;;;;4937352;29;20036;-59
2024/01/22 04:04:41;;;;;;;7.05;4.15;;;;;;;;;;4935376;29;20054;-60
2024/01/22 04:07:06;;;;;;;6.95;3.42;;;;;;;;;;4936693;29;20115;-60
2024/01/22 04:09:31;;;;;;;4.47;2.20;;;;;;;;;;4937013;29;20494;-60
2024/01/22 04:11:57;;;;;;;5.13;2.83;;;;;;;;;;4935296;29;20035;-59
2024/01/22 04:14:22;;;;;;;5.60;3.08;;;;;;;;;;4936973;29;20394;-60
2024/01/22 04:16:48;;;;;;;6.28;2.55;;;;;;;;;;4935290;29;20058;-58
2024/01/22 04:19:13;;;;;;;3.42;1.98;;;;;;;;;;4937240;29;20040;-58
2024/01/22 04:21:45;;;;;;;9.38;2.88;;;;;;;;;;4930264;29;20036;-60
2024/01/22 04:24:11;;;;;;;4.25;2.50;;;;;;;;;;4928656;29;20541;-60
2024/01/22 04:26:36;;;;;;;6.22;2.42;;;;;;;;;;4938902;29;20054;-60
2024/01/22 04:29:01;;;;;;;7.75;2.83;;;;;;;;;;4934771;29;20020;-60
2024/01/22 04:31:27;;;;;;;10.32;5.10;;;;;;;;;;4936606;29;20062;-60
2024/01/22 04:33:54;;;;;;;4.45;2.17;;;;;;;;;;4936771;29;20493;-59
2024/01/22 04:36:19;;;;;;;6.70;3.40;;;;;;;;;;4938564;29;20019;-59
2024/01/22 04:38:45;;;;;;;5.50;3.15;;;;;;;;;;4935021;29;20030;-60
2024/01/22 04:41:10;;;;;;;5.57;3.95;;;;;;;;;;4937610;29;20023;-58
2024/01/22 04:43:35;;;;;;;4.00;2.92;;;;;;;;;;4934773;29;20473;-58
2024/01/22 04:46:01;;;;;;;13.02;3.25;;;;;;;;;;4938142;29;20426;-60
2024/01/22 04:48:26;;;;;;;4.47;2.88;;;;;;;;;;4935248;29;20505;-57
2024/01/22 04:50:52;;;;;;;8.90;2.42;;;;;;;;;;4935658;29;20039;-60
2024/01/22 04:53:17;;;;;;;5.72;3.40;;;;;;;;;;4935190;29;20066;-58
2024/01/22 04:55:43;;;;;;;10.95;4.07;;;;;;;;;;4937631;29;20118;-60
2024/01/22 04:58:08;;;;;;;5.63;2.72;;;;;;;;;;4934931;29;20028;-57
2024/01/22 05:00:33;;;;;;;5.40;3.50;;;;;;;;;;4935105;29;20036;-58
2024/01/22 05:03:04;;;;;;;7.75;4.32;;;;;;;;;;4935776;29;20023;-60
2024/01/22 05:05:29;;;;;;;7.03;3.03;;;;;;;;;;4937036;29;20507;-59
2024/01/22 05:07:55;;;;;;;5.65;2.60;;;;;;;;;;4932654;29;20031;-59
2024/01/22 05:10:20;;;;;;;6.22;3.40;;;;;;;;;;4935563;29;20040;-58
2024/01/22 05:12:45;;;;;;;7.53;3.13;;;;;;;;;;4934597;29;20015;-60
2024/01/22 05:15:12;;;;;;;6.13;4.10;;;;;;;;;;4937141;29;20052;-60
2024/01/22 05:17:38;;;;;;;8.20;4.35;;;;;;;;;;4935121;29;20106;-60
2024/01/22 05:20:04;;;;;;;5.53;2.95;;;;;;;;;;4937352;29;20032;-60
2024/01/22 05:22:30;;;;;;;7.00;3.17;;;;;;;;;;4933495;29;20078;-60
2024/01/22 05:24:55;;;;;;;6.55;4.18;;;;;;;;;;4925622;29;20130;-58
2024/01/22 05:27:21;;;;;;;6.38;2.33;;;;;;;;;;4935498;29;20508;-59
2024/01/22 05:29:46;;;;;;;4.40;3.33;;;;;;;;;;4933571;29;20032;-59
2024/01/22 05:32:12;;;;;;;4.25;2.75;;;;;;;;;;4929607;29;20039;-59
2024/01/22 05:34:37;;;;;;;4.78;2.92;;;;;;;;;;4936662;29;20506;-57
2024/01/22 05:37:03;;;;;;;6.90;2.55;;;;;;;;;;4932283;29;20027;-60
2024/01/22 05:39:28;;;;;;;6.90;2.38;;;;;;;;;;4934051;29;20048;-60
2024/01/22 05:41:54;;;;;;;4.80;3.50;;;;;;;;;;4932771;29;20371;-59
2024/01/22 05:44:20;;;;;;;4.28;3.22;;;;;;;;;;4933627;29;20112;-60
2024/01/22 05:46:45;;;;;;;3.65;2.85;;;;;;;;;;4933580;29;20028;-60
2024/01/22 05:49:11;;;;;;;4.25;2.13;;;;;;;;;;4936623;29;20478;-58
2024/01/22 05:51:36;;;;;;;4.75;2.50;;;;;;;;;;4934530;29;20027;-59
2024/01/22 05:54:02;;;;;;;14.20;6.93;;;;;;;;;;4929662;29;22245;-60
2024/01/22 05:56:28;;;;;;;5.25;3.92;;;;;;;;;;4931120;29;20043;-60
2024/01/22 05:58:56;;;;;;;7.93;3.13;;;;;;;;;;4929562;29;20039;-60
2024/01/22 06:01:24;;;;;;;6.72;2.88;;;;;;;;;;4930434;29;20032;-59
2024/01/22 06:03:49;;;;;;;5.45;2.50;;;;;;;;;;4929373;29;20031;-60
2024/01/22 06:06:15;;;;;;;4.75;2.22;;;;;;;;;;4933719;29;20028;-57
2024/01/22 06:08:42;;;;;;;5.30;2.67;;;;;;;;;;4933429;29;20024;-60
2024/01/22 06:11:07;;;;;;;6.10;3.40;;;;;;;;;;4937777;29;20036;-59
2024/01/22 06:13:38;;;;;;;5.30;3.40;;;;;;;;;;4934041;29;20023;-59
2024/01/22 06:16:08;;;;;;;8.55;3.92;;;;;;;;;;4932017;29;20102;-58
2024/01/22 06:18:37;;;;;;;11.45;4.60;;;;;;;;;;4931282;29;20034;-58
2024/01/22 06:21:04;;;;;;;10.18;4.93;;;;;;;;;;4934092;29;20040;-60
2024/01/22 06:23:29;;;;;;;8.40;4.07;;;;;;;;;;4930067;29;20076;-60
2024/01/22 06:25:56;;;;;;;10.80;4.10;;;;;;;;;;4935385;29;20537;-60
2024/01/22 06:28:23;;;;;;;4.55;3.10;;;;;;;;;;4929198;29;20031;-60
2024/01/22 06:30:48;;;;;;;9.30;3.78;;;;;;;;;;4926561;29;20035;-59
2024/01/22 06:33:13;;;;;;;7.00;3.80;;;;;;;;;;4935847;29;20074;-59
2024/01/22 06:35:39;;;;;;;6.28;3.08;;;;;;;;;;4930983;29;20038;-60
2024/01/22 06:38:05;;;;;;;10.38;4.38;;;;;;;;;;4935144;29;20039;-59
2024/01/22 06:40:31;;;;;;;7.75;4.00;;;;;;;;;;4936155;29;20032;-60
2024/01/22 06:42:56;;;;;;;8.90;4.15;;;;;;;;;;4935375;29;20386;-61
2024/01/22 06:45:22;;;;;;;9.98;3.83;;;;;;;;;;4933889;29;20052;-58
2024/01/22 06:47:47;;;;;;;7.55;3.13;;;;;;;;;;4931821;29;20035;-60
2024/01/22 06:50:12;;;;;;;6.03;4.22;;;;;;;;;;4934716;29;20080;-59
2024/01/22 06:52:38;;;;;;;6.60;4.78;;;;;;;;;;4937740;29;20028;-59
2024/01/22 06:55:05;;;;;;;5.90;4.05;;;;;;;;;;4937101;29;20035;-58
2024/01/22 06:57:30;;;;;;;5.63;3.85;;;;;;;;;;4938355;29;20150;-59
2024/01/22 06:59:56;;;;;;;8.80;3.88;;;;;;;;;;4935157;29;20076;-60
2024/01/22 07:02:26;;;;;;;5.78;4.80;;;;;;;;;;4939878;29;20030;-59
2024/01/22 07:04:52;;;;;;;8.05;3.33;;;;;;;;;;4936159;29;20040;-61
2024/01/22 07:07:18;;;;;;;6.57;2.67;;;;;;;;;;4931698;29;20024;-60
2024/01/22 07:09:43;;;;;;;5.03;3.28;;;;;;;;;;4934468;29;20564;-60
2024/01/22 07:12:08;;;;;;;10.35;3.67;;;;;;;;;;4933869;29;20110;-60
2024/01/22 07:14:34;;;;;;;10.93;4.53;;;;;;;;;;4937132;29;20446;-58
2024/01/22 07:17:00;;;;;;;5.75;2.13;;;;;;;;;;4932700;29;20051;-59
2024/01/22 07:19:25;;;;;;;3.97;2.45;;;;;;;;;;4933736;29;20059;-57
2024/01/22 07:21:50;;;;;;;3.55;2.08;;;;;;;;;;4935568;29;20038;-58
2024/01/22 07:24:16;;;;;;;8.38;3.53;;;;;;;;;;4937469;29;20054;-59
2024/01/22 07:26:42;;;;;;;5.05;3.38;;;;;;;;;;4939858;29;20019;-60
2024/01/22 07:29:08;;;;;;;4.25;3.42;;;;;;;;;;4933457;29;20054;-58
2024/01/22 07:31:34;;;;;;;8.98;2.55;;;;;;;;;;4936490;29;20031;-60
2024/01/22 07:33:59;;;;;;;3.13;2.17;;;;;;;;;;4936499;29;20055;-59
2024/01/22 07:36:25;;;;;;;5.05;2.33;;;;;;;;;;4935725;29;20478;-60
2024/01/22 07:38:54;;;;;;;6.05;2.38;;;;;;;;;;4929114;29;20039;-60
2024/01/22 07:41:19;;;;;;;6.63;2.33;;;;;;;;;;4930225;29;20132;-59
2024/01/22 07:43:45;;;;;;;7.57;2.47;;;;;;;;;;4931779;29;20187;-55
2024/01/22 07:46:10;;;;;;;10.60;2.80;;;;;;;;;;4931287;29;20039;-57
2024/01/22 07:48:36;;;;;;;6.80;3.10;;;;;;;;;;4931648;29;20038;-54
2024/01/22 07:51:01;;;;;;;5.93;3.28;;;;;;;;;;4935501;28;20040;-54
2024/01/22 07:53:27;;;;;;;4.63;3.50;;;;;;;;;;4933696;29;20046;-56
2024/01/22 07:55:52;;;;;;;5.50;1.85;;;;;;;;;;4933823;29;20042;-57
2024/01/22 07:58:19;;;;;;;6.07;3.67;;;;;;;;;;4932500;29;20024;-59
2024/01/22 08:00:44;;;;;;;10.18;3.53;;;;;;;;;;4930998;29;20130;-60
2024/01/22 08:03:10;;;;;;;7.85;3.55;;;;;;;;;;4935776;29;20059;-57
2024/01/22 08:05:35;;;;;;;6.00;2.42;;;;;;;;;;4931260;29;20043;-55
2024/01/22 08:08:02;;;;;;;5.35;3.17;;;;;;;;;;4938879;29;20051;-57
2024/01/22 08:10:27;;;;;;;8.07;3.35;;;;;;;;;;4937625;29;20087;-54
2024/01/22 08:12:52;;;;;;;6.78;2.30;;;;;;;;;;4936798;29;20030;-55
2024/01/22 08:15:18;;;;;;;3.47;2.00;;;;;;;;;;4929476;29;20058;-57
2024/01/22 08:17:45;;;;;;;4.47;3.05;;;;;;;;;;4936027;29;20039;-56
2024/01/22 08:20:12;;;;;;;5.70;2.70;;;;;;;;;;4933598;29;20055;-55
2024/01/22 08:22:37;;;;;;;3.60;2.42;;;;;;;;;;4934614;29;20606;-54
2024/01/22 08:25:03;;;;;;;3.40;2.30;;;;;;;;;;4938182;29;20035;-57
2024/01/22 08:27:29;;;;;;;2.80;1.80;;;;;;;;;;4937506;29;20039;-55
2024/01/22 08:29:54;;;;;;;4.47;2.33;;;;;;;;;;4938404;29;20441;-56
2024/01/22 08:32:19;;;;;;;6.78;2.60;;;;;;;;;;4935256;29;20024;-54
2024/01/22 08:34:45;;;;;;;4.97;2.13;;;;;;;;;;4929937;29;20047;-57
2024/01/22 08:37:10;;;;;;;4.32;2.63;;;;;;;;;;4934364;29;20095;-58
2024/01/22 08:39:35;;;;;;;4.60;1.90;;;;;;;;;;4928555;29;20032;-59
2024/01/22 08:42:01;;;;;;;6.57;2.63;;;;;;;;;;4932525;29;20031;-57
2024/01/22 08:44:26;;;;;;;5.03;2.28;;;;;;;;;;4936705;29;20051;-55
2024/01/22 08:46:52;;;;;;;3.65;1.80;;;;;;;;;;4932225;29;20019;-59
2024/01/22 08:49:17;;;;;;;11.48;3.15;;;;;;;;;;4937100;29;20043;-59
2024/01/22 08:51:42;;;;;;;2.78;1.88;;;;;;;;;;4931555;29;20035;-56
2024/01/22 08:54:08;;;;;;;4.47;2.08;;;;;;;;;;4937630;29;20043;-58
2024/01/22 08:56:34;;;;;;;4.50;2.42;;;;;;;;;;4932252;29;20031;-53
2024/01/22 08:59:00;;;;;;;3.88;3.03;;;;;;;;;;4932765;29;20036;-59
2024/01/22 09:01:25;;;;;;;6.50;2.38;;;;;;;;;;4936961;29;20113;-60
2024/01/22 09:03:51;;;;;;;5.80;1.98;;;;;;;;;;4934853;29;20123;-58
2024/01/22 09:06:16;;;;;;;5.20;2.53;;;;;;;;;;4932010;29;20038;-57
2024/01/22 09:08:42;;;;;;;5.82;2.13;;;;;;;;;;4929683;29;20118;-59
2024/01/22 09:11:08;;;;;;;6.25;2.53;;;;;;;;;;4936400;29;20043;-58
2024/01/22 09:13:33;;;;;;;6.03;2.70;;;;;;;;;;4934860;29;20079;-59
2024/01/22 09:15:59;;;;;;;3.97;2.00;;;;;;;;;;4934163;29;20052;-59
2024/01/22 09:18:25;;;;;;;9.32;1.67;;;;;;;;;;4934555;29;20051;-59
2024/01/22 09:20:52;;;;;;;3.45;1.70;;;;;;;;;;4936402;29;20532;-58
2024/01/22 09:23:17;;;;;;;2.58;1.50;;;;;;;;;;4932827;29;20035;-57
2024/01/22 09:25:43;;;;;;;5.57;1.83;;;;;;;;;;4935279;29;20099;-58
2024/01/22 09:28:08;;;;;;;3.58;1.35;;;;;;;;;;4935222;29;20035;-59
2024/01/22 09:30:34;;;;;;;8.82;3.15;;;;;;;;;;4934395;29;20114;-59
2024/01/22 09:32:59;;;;;;;4.28;1.58;;;;;;;;;;4936765;29;20034;-59
2024/01/22 09:35:25;;;;;;;2.83;2.45;;;;;;;;;;4934143;29;20605;-59
2024/01/22 09:37:51;;;;;;;4.25;1.85;;;;;;;;;;4935782;29;20031;-59
2024/01/22 09:40:17;;;;;;;4.65;1.48;;;;;;;;;;4933584;29;20098;-56
2024/01/22 09:42:44;;;;;;;5.07;1.52;;;;;;;;;;4934242;29;20032;-57
2024/01/22 09:45:09;;;;;;;3.80;1.75;;;;;;;;;;4933506;29;20083;-57
2024/01/22 09:47:37;;;;;;;4.75;2.05;;;;;;;;;;4937100;29;20028;-57
2024/01/22 09:50:03;;;;;;;5.47;1.92;;;;;;;;;;4927579;29;20148;-56
2024/01/22 09:52:32;;;;;;;6.30;2.67;;;;;;;;;;4937249;29;20039;-58
2024/01/22 09:54:58;;;;;;;4.82;2.00;;;;;;;;;;4935706;29;20504;-55
2024/01/22 09:57:27;;;;;;;3.35;2.55;;;;;;;;;;4930840;29;20027;-59
2024/01/22 09:59:52;;;;;;;2.33;2.10;;;;;;;;;;4929168;29;20047;-59
2024/01/22 10:02:18;;;;;;;5.60;2.33;;;;;;;;;;4935619;29;20043;-56
2024/01/22 10:04:44;;;;;;;3.90;2.05;;;;;;;;;;4934588;29;20099;-58
2024/01/22 10:07:13;;;;;;;4.32;1.52;;;;;;;;;;4939605;29;20035;-59
2024/01/22 10:09:39;;;;;;;5.22;1.25;;;;;;;;;;4938773;29;20095;-59
2024/01/22 10:12:05;;;;;;;4.85;1.92;;;;;;;;;;4939938;29;20434;-58
2024/01/22 10:14:31;;;;;;;3.83;1.77;;;;;;;;;;4937716;29;20056;-55
2024/01/22 10:17:13;;;;;;;3.45;1.58;;;;;;;;;;4937686;29;20048;-57
2024/01/22 10:19:38;;;;;;;4.07;1.58;;;;;;;;;;4937248;29;20044;-59
2024/01/22 10:22:04;;;;;;;4.63;1.50;;;;;;;;;;4938629;29;20039;-57
2024/01/22 10:24:30;;;;;;;3.42;1.80;;;;;;;;;;4937752;29;20052;-55
2024/01/22 10:27:14;;;;;;;2.25;0.70;;;;;;;;;;4940041;29;20087;-55
2024/01/22 10:29:42;;;;;;;4.18;1.95;;;;;;;;;;4934910;29;20373;-58
2024/01/22 10:32:07;;;;;;;9.77;2.17;;;;;;;;;;4939103;29;20450;-59
2024/01/22 10:34:44;;;;;;;4.78;2.10;;;;;;;;;;4938885;29;20187;-59
2024/01/22 10:37:13;;;;;;;3.05;1.45;;;;;;;;;;4937620;29;20035;-58
2024/01/22 10:39:41;;;;;;;7.03;2.40;;;;;;;;;;4938651;29;20406;-56
2024/01/22 10:42:09;;;;;;;5.03;1.88;;;;;;;;;;4939681;29;20046;-59
2024/01/22 10:44:38;;;;;;;6.18;1.80;;;;;;;;;;4940156;29;20059;-58
2024/01/22 10:47:05;;;;;;;5.10;2.47;;;;;;;;;;4935446;29;20034;-58
2024/01/22 10:49:34;;;;;;;6.10;1.98;;;;;;;;;;4937458;29;20050;-58
2024/01/22 10:52:00;;;;;;;4.38;2.42;;;;;;;;;;4933035;29;20115;-58
2024/01/22 10:54:29;;;;;;;4.93;1.90;;;;;;;;;;4937302;29;20091;-58
2024/01/22 10:57:18;;;;;;;6.20;2.50;;;;;;;;;;4936957;29;20034;-56
2024/01/22 10:59:48;;;;;;;4.55;2.15;;;;;;;;;;4931009;29;20411;-58
2024/01/22 11:02:23;;;;;;;5.07;2.20;;;;;;;;;;4935636;29;20031;-58
2024/01/22 11:04:52;;;;;;;6.97;2.63;;;;;;;;;;4938977;29;20040;-54
2024/01/22 11:07:20;;;;;;;;;;;;;;;;;;4937446;29;20059;-57
2024/01/22 11:09:50;;;;;;;4.75;2.08;;;;;;;;;;4932641;29;20009;-59
2024/01/22 11:12:21;;;;;;;8.10;2.33;;;;;;;;;;4937420;29;20032;-60
2024/01/22 11:14:46;;;;;;;7.72;3.47;;;;;;;;;;4937728;29;20050;-60
2024/01/22 11:17:13;;;;;;;7.47;4.43;;;;;;;;;;4936777;29;20052;-60
2024/01/22 11:19:38;;;;;;;6.72;3.30;;;;;;;;;;4930439;29;20063;-60
2024/01/22 11:22:23;;;;;;;5.10;3.08;;;;;;;;;;4937475;29;20047;-60
2024/01/22 11:25:01;;;;;;;5.72;2.50;;;;;;;;;;4932393;29;20402;-59
2024/01/22 11:27:47;;;;;;;8.15;3.22;;;;;;;;;;4938730;29;20389;-59
2024/01/22 11:30:25;;;;;;;6.97;3.40;;;;;;;;;;4938983;29;20043;-59
2024/01/22 11:32:50;;;;;;;6.35;2.08;;;;;;;;;;4934525;29;20024;-60
2024/01/22 11:35:39;;;;;;;5.85;2.92;;;;;;;;;;4937581;29;20057;-59
2024/01/22 11:38:09;;;;;;;7.18;3.17;;;;;;;;;;4931518;29;20028;-60
2024/01/22 11:40:52;;;;;;;7.75;3.28;;;;;;;;;;4936404;29;20046;-59
2024/01/22 11:43:22;;;;;;;4.38;1.95;;;;;;;;;;4926456;29;20139;-59
2024/01/22 11:45:51;;;;;;;6.60;2.50;;;;;;;;;;4936529;29;20078;-59
2024/01/22 11:48:21;;;;;;;7.53;2.55;;;;;;;;;;4936106;29;20031;-59
2024/01/22 11:51:04;;;;;;;8.57;3.25;;;;;;;;;;4935921;29;20047;-59
2024/01/22 11:53:31;;;;;;;5.78;3.63;;;;;;;;;;4936497;29;20043;-59
2024/01/22 11:56:06;;;;;;;5.80;2.25;;;;;;;;;;4931775;29;20058;-59
2024/01/22 11:58:34;;;;;;;;;;;;;;;;;;4935357;29;20027;-57
2024/01/22 12:01:00;;;;;;;3.88;2.28;;;;;;;;;;4936012;29;19949;-59
2024/01/22 12:03:28;;;;;;;4.65;3.05;;;;;;;;;;4935399;29;20055;-60
2024/01/22 12:06:08;;;;;;;5.50;2.70;;;;;;;;;;4932924;29;20042;-60
2024/01/22 12:08:35;;;;;;;6.43;2.45;;;;;;;;;;4935511;29;20031;-60
2024/01/22 12:11:06;;;;;;;6.18;2.45;;;;;;;;;;4935384;29;20077;-59
2024/01/22 12:13:37;;;;;;;3.67;3.08;;;;;;;;;;4937690;29;20091;-59
2024/01/22 12:16:03;;;;;;;8.10;2.33;;;;;;;;;;4937040;29;20048;-60
2024/01/22 12:18:28;;;;;;;16.10;3.13;;;;;;;;;;4937654;29;20394;-57
2024/01/22 12:20:54;;;;;;;5.82;3.25;;;;;;;;;;4934281;29;20450;-60
2024/01/22 12:23:29;;;;;;;8.65;2.40;;;;;;;;;;4938509;29;20035;-60
2024/01/22 12:25:55;;;;;;;4.30;2.83;;;;;;;;;;4935248;29;20046;-60
2024/01/22 12:28:21;;;;;;;8.75;3.22;;;;;;;;;;4934475;29;20379;-58
2024/01/22 12:30:46;;;;;;;4.82;3.45;;;;;;;;;;4934705;29;20175;-60
2024/01/22 12:33:29;;;;;;;3.60;2.10;;;;;;;;;;4932505;29;20039;-59
2024/01/22 12:36:24;;;;;;;7.35;2.80;;;;;;;;;;4936539;29;20035;-60
2024/01/22 12:38:51;;;;;;;7.78;3.50;;;;;;;;;;4930294;29;20118;-59
2024/01/22 12:41:18;;;;;;;5.72;2.83;;;;;;;;;;4938043;29;20032;-59
2024/01/22 12:43:44;;;;;;;8.07;2.83;;;;;;;;;;4935054;29;20028;-59
2024/01/22 12:46:13;;;;;;;8.98;2.58;;;;;;;;;;4937399;29;20019;-59
2024/01/22 12:48:39;;;;;;;4.75;2.80;;;;;;;;;;4934949;29;20032;-60
2024/01/22 12:51:06;;;;;;;5.10;1.95;;;;;;;;;;4934880;29;20044;-59
2024/01/22 12:53:31;;;;;;;4.45;2.45;;;;;;;;;;4937209;29;20051;-60
2024/01/22 12:55:57;;;;;;;7.85;2.53;;;;;;;;;;4934908;29;20530;-60
2024/01/22 12:58:25;;;;;;;7.40;2.95;;;;;;;;;;4933383;29;20032;-58
2024/01/22 13:00:50;;;;;;;5.15;1.65;;;;;;;;;;4935686;29;20044;-58
2024/01/22 13:03:16;;;;;;;3.45;2.13;;;;;;;;;;4936792;29;20561;-59
2024/01/22 13:05:42;;;;;;;5.60;3.05;;;;;;;;;;4931220;29;20107;-60
2024/01/22 13:08:08;;;;;;;9.48;3.55;;;;;;;;;;4936353;29;20070;-58
2024/01/22 13:10:34;;;;;;;7.20;3.30;;;;;;;;;;4933740;29;20490;-60
2024/01/22 13:12:59;;;;;;;9.23;2.67;;;;;;;;;;4937433;29;20103;-58
2024/01/22 13:15:24;;;;;;;11.73;4.13;;;;;;;;;;4934815;29;20063;-60
2024/01/22 13:17:50;;;;;;;6.70;5.18;;;;;;;;;;4934295;29;20029;-60
2024/01/22 13:20:17;;;;;;;8.00;4.57;;;;;;;;;;4936357;29;20047;-60
2024/01/22 13:22:42;;;;;;;4.30;2.83;;;;;;;;;;4935277;29;20032;-60
2024/01/22 13:25:08;;;;;;;6.43;2.58;;;;;;;;;;4934701;29;20043;-59
2024/01/22 13:27:34;;;;;;;6.38;2.30;;;;;;;;;;4932216;29;20031;-59
2024/01/22 13:29:59;;;;;;;5.28;2.50;;;;;;;;;;4934209;29;20054;-59
2024/01/22 13:32:24;;;;;;;8.95;2.35;;;;;;;;;;4932117;29;20117;-59
2024/01/22 13:34:50;;;;;;;6.68;2.20;;;;;;;;;;4934883;29;20044;-59
2024/01/22 13:37:15;;;;;;;5.72;2.42;;;;;;;;;;4935154;29;20042;-59
2024/01/22 13:39:41;;;;;;;4.05;1.98;;;;;;;;;;4935192;29;20086;-60
2024/01/22 13:42:06;;;;;;;5.05;2.55;;;;;;;;;;4933453;29;20131;-59
2024/01/22 13:44:32;;;;;;;6.85;1.90;;;;;;;;;;4935193;29;20048;-60
2024/01/22 13:46:57;;;;;;;4.38;2.20;;;;;;;;;;4932980;29;20055;-59
2024/01/22 13:49:23;;;;;;;5.88;2.20;;;;;;;;;;4935396;29;20103;-60
2024/01/22 13:51:48;;;;;;;4.90;2.53;;;;;;;;;;4934728;29;20087;-59
2024/01/22 13:54:13;;;;;;;3.20;1.73;;;;;;;;;;4932909;29;20446;-60
2024/01/22 13:56:39;;;;;;;6.50;2.72;;;;;;;;;;4931136;29;20537;-60
2024/01/22 13:59:06;;;;;;;6.30;2.10;;;;;;;;;;4932542;29;20050;-60
2024/01/22 14:01:32;;;;;;;7.57;2.25;;;;;;;;;;4931734;29;20046;-59
2024/01/22 14:03:57;;;;;;;6.90;2.40;;;;;;;;;;4933606;29;20127;-60
2024/01/22 14:06:23;;;;;;;5.93;3.42;;;;;;;;;;4935204;29;20027;-59
2024/01/22 14:08:48;;;;;;;4.15;1.42;;;;;;;;;;4934188;29;20107;-59
2024/01/22 14:11:15;;;;;;;4.82;1.83;;;;;;;;;;4934943;29;20031;-59
2024/01/22 14:13:41;;;;;;;3.67;2.70;;;;;;;;;;4936520;29;20039;-58
2024/01/22 14:16:06;;;;;;;4.95;1.77;;;;;;;;;;4933335;29;20146;-58
2024/01/22 14:18:32;;;;;;;7.68;2.83;;;;;;;;;;4935773;29;20026;-60
2024/01/22 14:20:57;;;;;;;6.57;3.60;;;;;;;;;;4931296;29;20040;-59
2024/01/22 14:23:23;;;;;;;5.43;2.50;;;;;;;;;;4934700;29;20482;-60
2024/01/22 14:25:48;;;;;;;6.78;3.03;;;;;;;;;;4933561;29;20569;-59
2024/01/22 14:28:14;;;;;;;7.88;2.40;;;;;;;;;;4928203;29;20047;-59
2024/01/22 14:30:39;;;;;;;7.32;2.55;;;;;;;;;;4933733;29;20054;-59
2024/01/22 14:33:05;;;;;;;5.97;2.45;;;;;;;;;;4931914;29;20071;-60
2024/01/22 14:35:30;;;;;;;5.35;2.53;;;;;;;;;;4933971;29;20051;-60
2024/01/22 14:37:55;;;;;;;7.65;4.22;;;;;;;;;;4935107;29;20086;-61